Terminal Aerodrome Forecast
Issued by NWS El Paso, TX

Home | Current Version | Previous Version | Text Only | Print | Product List | Glossary On
Versions: 1 2 3 4 5 6 7 8 9 10 11 12 13 14 15
000
FTUS44 KEPZ 162100 AAA
TAFELP
TAF AMD
KELP 162106Z 1621/1718 10010KT P6SM VCSH FEW015 SCT035 BKN070
      TEMPO 1622/1623 5SM -TSRA BKN035CB
     FM170200 10012KT 4SM SHRA SCT005 BKN025 OVC040
     FM171600 23008KT 6SM -SHRA SCT020 BKN040 OVC060=

USA.gov is the U.S. government's official web portal to all federal, state and local government web resources and services.